Time;durP1;ratioP1;P1;durP2;ratioP2;P2;SDS_P1;SDS_P2;PMS_P1;PMS_P2;Temp;Humidity;BMP_temperature;BMP_pressure;BME280_temperature;BME280_humidity;BME280_pressure;Samples;Min_cycle;Max_cycle;Signal;HPM_P1;HPM_P2
2023/05/11 00:01:03;;;;;;;;;5.33;3.00;;;;;;;;2061530;27;2739851;-74
2023/05/11 00:02:14;;;;;;;;;2.00;2.00;;;;;;;;2033403;27;2750290;-74
2023/05/11 00:03:25;;;;;;;;;3.00;2.00;;;;;;;;2046611;28;2753437;-74
2023/05/11 00:04:35;;;;;;;;;3.00;3.00;;;;;;;;2052565;27;2738256;-74
2023/05/11 00:05:48;;;;;;;;;3.40;2.20;;;;;;;;2052294;27;2745071;-75
2023/05/11 00:07:01;;;;;;;;;3.83;1.83;;;;;;;;2032173;27;2741931;-74
2023/05/11 00:08:15;;;;;;;;;4.17;3.17;;;;;;;;2046491;27;2741151;-74
2023/05/11 00:09:28;;;;;;;;;3.83;3.33;;;;;;;;2045905;27;2746113;-74
2023/05/11 00:10:38;;;;;;;;;3.00;3.00;;;;;;;;2019515;27;2746118;-74
2023/05/11 00:11:50;;;;;;;;;2.00;2.00;;;;;;;;2067601;27;2744019;-74
2023/05/11 00:13:03;;;;;;;;;4.00;3.00;;;;;;;;2061897;27;2735700;-74
2023/05/11 00:14:16;;;;;;;;;3.67;3.00;;;;;;;;2041483;27;2748198;-74
2023/05/11 00:15:26;;;;;;;;;3.67;3.67;;;;;;;;2011550;27;2751322;-74
2023/05/11 00:16:37;;;;;;;;;4.33;3.00;;;;;;;;2053076;27;2746100;-74
2023/05/11 00:17:50;;;;;;;;;1.33;1.00;;;;;;;;2070080;27;2725255;-74
2023/05/11 00:19:03;;;;;;;;;4.67;2.33;;;;;;;;2061392;27;2732579;-74
2023/05/11 00:20:16;;;;;;;;;4.50;3.00;;;;;;;;2038391;27;2733615;-74
2023/05/11 00:21:29;;;;;;;;;3.33;3.33;;;;;;;;2046951;27;2738332;-74
2023/05/11 00:22:42;;;;;;;;;3.00;3.00;;;;;;;;2038691;27;2728387;-74
2023/05/11 00:23:55;;;;;;;;;5.00;2.00;;;;;;;;2043588;27;2745065;-74
2023/05/11 00:25:06;;;;;;;;;3.67;3.00;;;;;;;;2019917;27;2744035;-74
2023/05/11 00:26:17;;;;;;;;;4.00;2.33;;;;;;;;2055622;27;2730478;-74
2023/05/11 00:27:27;;;;;;;;;5.00;3.00;;;;;;;;2069018;27;2744011;-74
2023/05/11 00:28:38;;;;;;;;;3.67;2.67;;;;;;;;2043524;27;2750280;-74
2023/05/11 00:29:49;;;;;;;;;2.00;2.00;;;;;;;;2060566;27;2736708;-74
2023/05/11 00:30:59;;;;;;;;;4.33;1.67;;;;;;;;2035213;27;2741934;-74
2023/05/11 00:32:10;;;;;;;;;4.00;2.67;;;;;;;;2058503;27;2753405;-74
2023/05/11 00:33:22;;;;;;;;;3.00;3.00;;;;;;;;2061277;27;2740893;-74
2023/05/11 00:34:32;;;;;;;;;3.00;3.00;;;;;;;;2022093;27;2748193;-74
2023/05/11 00:35:43;;;;;;;;;4.00;3.33;;;;;;;;2059558;27;2739868;-74
2023/05/11 00:36:56;;;;;;;;;3.67;3.17;;;;;;;;2057800;27;2741940;-74
2023/05/11 00:38:10;;;;;;;;;5.00;2.00;;;;;;;;2046086;27;2741930;-75
2023/05/11 00:39:20;;;;;;;;;5.00;2.67;;;;;;;;2020239;27;2754442;-75
2023/05/11 00:40:31;;;;;;;;;3.67;3.00;;;;;;;;2068417;27;2745080;-74
2023/05/11 00:41:44;;;;;;;;;2.83;2.83;;;;;;;;2070563;27;2739847;-75
2023/05/11 00:42:57;;;;;;;;;4.00;3.17;;;;;;;;2046426;27;2743542;-74
2023/05/11 00:44:11;;;;;;;;;3.00;3.00;;;;;;;;2033798;27;2738820;-74
2023/05/11 00:45:24;;;;;;;;;2.83;2.83;;;;;;;;2037841;27;2751321;-74
2023/05/11 00:46:38;;;;;;;;;3.00;2.33;;;;;;;;2042738;27;2741959;-74
2023/05/11 00:47:48;;;;;;;;;4.00;4.00;;;;;;;;2012477;27;2754428;-74
2023/05/11 00:48:59;;;;;;;;;6.00;4.00;;;;;;;;2062846;27;2754431;-74
2023/05/11 00:50:10;;;;;;;;;4.00;4.00;;;;;;;;2050263;27;1842135;-75
2023/05/11 00:51:23;;;;;;;;;5.00;5.00;;;;;;;;2060943;27;2741507;-74
2023/05/11 00:52:36;;;;;;;;;3.00;3.00;;;;;;;;2045731;27;2747215;-74
2023/05/11 00:53:46;;;;;;;;;6.00;3.00;;;;;;;;2006004;27;2755044;-74
2023/05/11 00:54:57;;;;;;;;;3.67;3.00;;;;;;;;2044545;27;2744035;-74
2023/05/11 00:56:08;;;;;;;;;5.33;4.00;;;;;;;;2061670;27;2754542;-74
2023/05/11 00:57:20;;;;;;;;;5.00;4.00;;;;;;;;2065559;27;2750292;-74
2023/05/11 00:58:30;;;;;;;;;4.00;4.00;;;;;;;;2035160;27;2754431;-74
2023/05/11 00:59:41;;;;;;;;;4.00;3.00;;;;;;;;2061146;27;2734651;-74
2023/05/11 01:00:54;;;;;;;;;4.83;4.67;;;;;;;;2068417;27;2739959;-74
2023/05/11 01:02:05;;;;;;;;;3.33;3.00;;;;;;;;2021125;27;2745075;-74
2023/05/11 01:03:16;;;;;;;;;4.33;4.33;;;;;;;;2053027;27;2752386;-74
2023/05/11 01:04:27;;;;;;;;;5.67;4.33;;;;;;;;2037589;27;2747136;-74
2023/05/11 01:05:44;;;;;;;;;7.00;4.00;;;;;;;;2052919;27;2750333;-74
2023/05/11 01:07:08;;;;;;;;;2.50;2.50;;;;;;;;2066163;27;2738820;-74
2023/05/11 01:08:23;;;;;;;;;3.00;1.50;;;;;;;;2046859;27;2731518;-74
2023/05/11 01:09:33;;;;;;;;;5.33;4.00;;;;;;;;2011371;27;2747159;-74
2023/05/11 01:10:48;;;;;;;;;4.33;4.33;;;;;;;;2061068;27;2741939;-74
2023/05/11 01:12:04;;;;;;;;;5.17;4.00;;;;;;;;2066814;27;2741938;-74
2023/05/11 01:13:26;;;;;;;;;5.00;3.50;;;;;;;;2041975;27;2745064;-74
2023/05/11 01:15:02;;;;;;;;;4.33;3.00;;;;;;;;2019509;27;2742977;-74
2023/05/11 01:16:20;;;;;;;;;4.00;4.00;;;;;;;;2031176;27;2740905;-74
2023/05/11 01:17:43;;;;;;;;;5.33;4.00;;;;;;;;2036485;27;2754456;-74
2023/05/11 01:18:56;;;;;;;;;7.67;2.50;;;;;;;;2069776;27;2744015;-74
2023/05/11 01:20:08;;;;;;;;;4.67;4.00;;;;;;;;2019870;27;2754930;-74
2023/05/11 01:21:18;;;;;;;;;4.00;4.00;;;;;;;;2043218;27;3467941;-74
2023/05/11 01:22:48;;;;;;;;;5.67;4.67;;;;;;;;2067913;27;2748173;-75
2023/05/11 01:24:17;;;;;;;;;2.00;2.00;;;;;;;;2027746;27;2734633;-75
2023/05/11 01:25:30;;;;;;;;;4.17;3.50;;;;;;;;2060567;27;2741974;-74
2023/05/11 01:27:02;;;;;;;;;4.17;4.00;;;;;;;;2032384;27;2746102;-75
2023/05/11 01:28:15;;;;;;;;;4.67;3.17;;;;;;;;2041096;27;2732600;-74
2023/05/11 01:29:34;;;;;;;;;3.00;2.50;;;;;;;;2037321;27;2750276;-74
2023/05/11 01:30:50;;;;;;;;;5.33;3.17;;;;;;;;2039193;27;2741932;-74
2023/05/11 01:32:03;;;;;;;;;2.33;2.00;;;;;;;;2006877;27;2740976;-74
2023/05/11 01:33:15;;;;;;;;;5.00;3.67;;;;;;;;2028380;27;2746151;-75
2023/05/11 01:34:29;;;;;;;;;5.00;3.67;;;;;;;;2042228;27;2746204;-74
2023/05/11 01:35:47;;;;;;;;;3.83;3.83;;;;;;;;2061786;27;2746088;-74
2023/05/11 01:37:05;;;;;;;;;5.33;3.67;;;;;;;;2045685;27;2746090;-74
2023/05/11 01:38:18;;;;;;;;;3.00;3.00;;;;;;;;2018315;27;2749333;-74
2023/05/11 01:39:31;;;;;;;;;3.33;3.33;;;;;;;;2043821;27;2739848;-74
2023/05/11 01:40:50;;;;;;;;;3.17;3.00;;;;;;;;2070601;27;2733597;-74
2023/05/11 01:42:07;;;;;;;;;5.33;3.50;;;;;;;;2036617;27;2749211;-74
2023/05/11 01:43:22;;;;;;;;;4.50;3.67;;;;;;;;2034363;27;2744002;-74
2023/05/11 01:44:41;;;;;;;;;3.83;2.00;;;;;;;;2046221;27;2746094;-74
2023/05/11 01:45:56;;;;;;;;;1.83;1.83;;;;;;;;2036858;27;2738165;-74
2023/05/11 01:47:07;;;;;;;;;2.33;2.00;;;;;;;;2012857;27;2746465;-74
2023/05/11 01:48:22;;;;;;;;;3.67;3.00;;;;;;;;2069310;27;2741929;-74
2023/05/11 01:49:37;;;;;;;;;3.00;1.67;;;;;;;;2046264;27;2726914;-74
2023/05/11 01:50:51;;;;;;;;;4.00;3.67;;;;;;;;2046723;27;2729424;-75
2023/05/11 01:52:08;;;;;;;;;2.00;1.17;;;;;;;;2037184;27;2744010;-74
2023/05/11 01:53:22;;;;;;;;;3.00;1.50;;;;;;;;2037379;27;2735675;-74
2023/05/11 01:54:36;;;;;;;;;1.17;1.17;;;;;;;;2046817;27;2733622;-75
2023/05/11 01:55:50;;;;;;;;;1.50;1.50;;;;;;;;2046105;27;2736061;-74
2023/05/11 01:57:04;;;;;;;;;3.17;2.33;;;;;;;;2046055;27;2733591;-74
2023/05/11 01:58:17;;;;;;;;;2.67;2.00;;;;;;;;2046383;27;2744027;-75
2023/05/11 01:59:32;;;;;;;;;1.67;1.67;;;;;;;;2037582;27;2739845;-74
2023/05/11 02:00:45;;;;;;;;;2.83;2.00;;;;;;;;2038238;27;2744016;-74
2023/05/11 02:01:59;;;;;;;;;2.17;2.00;;;;;;;;2046772;27;2739880;-74
2023/05/11 02:03:14;;;;;;;;;1.00;1.00;;;;;;;;2041611;27;2727329;-74
2023/05/11 02:04:27;;;;;;;;;2.00;2.00;;;;;;;;2069900;27;2739960;-74
2023/05/11 02:05:41;;;;;;;;;1.83;1.17;;;;;;;;2047301;27;2722141;-74
2023/05/11 02:06:55;;;;;;;;;1.50;1.00;;;;;;;;2047194;27;2729409;-74
2023/05/11 02:08:09;;;;;;;;;3.17;2.00;;;;;;;;2070185;27;2735745;-74
2023/05/11 02:09:23;;;;;;;;;2.00;1.00;;;;;;;;2046788;27;2729439;-74
2023/05/11 02:10:37;;;;;;;;;2.50;2.17;;;;;;;;2035755;27;2754021;-74
2023/05/11 02:11:51;;;;;;;;;1.00;1.00;;;;;;;;2039762;27;2724201;-74
2023/05/11 02:13:05;;;;;;;;;1.00;0.00;;;;;;;;2040605;27;2724258;-74
2023/05/11 02:14:19;;;;;;;;;3.00;2.00;;;;;;;;2052030;28;2754452;-74
2023/05/11 02:15:36;;;;;;;;;3.00;1.00;;;;;;;;2038121;27;2737768;-74
2023/05/11 02:16:49;;;;;;;;;2.83;2.00;;;;;;;;2046132;27;2750289;-74
2023/05/11 02:18:03;;;;;;;;;2.17;2.00;;;;;;;;2045882;27;2734637;-74
2023/05/11 02:19:17;;;;;;;;;3.50;1.83;;;;;;;;2045706;27;2741971;-74
2023/05/11 02:20:31;;;;;;;;;3.00;2.00;;;;;;;;2044862;27;2751302;-74
2023/05/11 02:21:42;;;;;;;;;3.00;1.67;;;;;;;;2017394;27;2748225;-74
2023/05/11 02:22:56;;;;;;;;;1.50;1.50;;;;;;;;2064051;27;2721102;-74
2023/05/11 02:24:09;;;;;;;;;1.00;1.00;;;;;;;;2037900;27;2725286;-74
2023/05/11 02:25:23;;;;;;;;;2.00;1.33;;;;;;;;2062135;27;2733929;-74
2023/05/11 02:26:36;;;;;;;;;3.67;1.00;;;;;;;;2047005;27;2731894;-74
2023/05/11 02:27:50;;;;;;;;;1.00;1.00;;;;;;;;2047130;27;2726334;-74
2023/05/11 02:29:03;;;;;;;;;3.33;2.00;;;;;;;;2028840;28;2750253;-74
2023/05/11 02:30:16;;;;;;;;;1.50;1.00;;;;;;;;2030841;27;2732564;-74
2023/05/11 02:31:31;;;;;;;;;2.00;1.83;;;;;;;;2060828;27;2726346;-74
2023/05/11 02:32:49;;;;;;;;;1.17;1.17;;;;;;;;2039880;27;2724230;-74
2023/05/11 02:34:08;;;;;;;;;1.83;1.83;;;;;;;;2037006;27;2745071;-74
2023/05/11 02:35:27;;;;;;;;;1.67;1.00;;;;;;;;2031841;27;2731503;-74
2023/05/11 02:36:41;;;;;;;;;1.83;1.50;;;;;;;;2043816;27;2732584;-74
2023/05/11 02:37:56;;;;;;;;;4.00;1.00;;;;;;;;2046720;27;2728386;-74
2023/05/11 02:39:12;;;;;;;;;4.00;1.00;;;;;;;;2046704;27;2733619;-74
2023/05/11 02:40:28;;;;;;;;;1.17;1.17;;;;;;;;2046245;27;2727356;-75
2023/05/11 02:41:43;;;;;;;;;4.83;3.00;;;;;;;;2045506;27;2750249;-74
2023/05/11 02:42:59;;;;;;;;;1.50;1.50;;;;;;;;2045517;27;2737768;-74
2023/05/11 02:44:14;;;;;;;;;2.00;2.00;;;;;;;;2061991;27;2733587;-74
2023/05/11 02:45:29;;;;;;;;;2.00;1.17;;;;;;;;2046138;27;2731551;-74
2023/05/11 02:46:44;;;;;;;;;1.33;1.33;;;;;;;;2038627;27;2726811;-74
2023/05/11 02:47:59;;;;;;;;;2.67;1.50;;;;;;;;2039307;27;2730489;-74
2023/05/11 02:49:14;;;;;;;;;2.67;1.00;;;;;;;;2037331;27;2731544;-74
2023/05/11 02:50:29;;;;;;;;;2.00;1.67;;;;;;;;2038588;27;2734697;-74
2023/05/11 02:51:43;;;;;;;;;1.33;1.33;;;;;;;;2037228;27;2735703;-75
2023/05/11 02:52:58;;;;;;;;;2.17;2.17;;;;;;;;2029478;27;2729425;-74
2023/05/11 02:54:13;;;;;;;;;1.33;1.33;;;;;;;;2033676;27;2731533;-74
2023/05/11 02:55:26;;;;;;;;;1.00;1.00;;;;;;;;2047690;27;2730462;-74
2023/05/11 02:56:39;;;;;;;;;2.17;1.50;;;;;;;;2071614;27;2734679;-74
2023/05/11 02:57:53;;;;;;;;;2.33;1.50;;;;;;;;2047241;27;2746103;-74
2023/05/11 02:59:06;;;;;;;;;3.17;2.33;;;;;;;;2070358;27;2741939;-74
2023/05/11 03:00:16;;;;;;;;;7.00;2.00;;;;;;;;2011418;27;2752367;-74
2023/05/11 03:01:27;;;;;;;;;2.33;2.00;;;;;;;;2058087;27;2753496;-74
2023/05/11 03:02:39;;;;;;;;;1.75;1.75;;;;;;;;2069073;27;2741348;-74
2023/05/11 03:03:52;;;;;;;;;2.00;2.00;;;;;;;;2048445;27;2736747;-74
2023/05/11 03:05:05;;;;;;;;;1.83;1.83;;;;;;;;2047876;27;2729432;-74
2023/05/11 03:06:19;;;;;;;;;2.00;2.00;;;;;;;;2037739;27;2735705;-74
2023/05/11 03:07:32;;;;;;;;;1.83;1.83;;;;;;;;2031450;27;2739852;-74
2023/05/11 03:08:45;;;;;;;;;2.50;1.83;;;;;;;;2031918;27;2737753;-74
2023/05/11 03:09:55;;;;;;;;;3.33;2.33;;;;;;;;2004516;27;2752428;-74
2023/05/11 03:11:07;;;;;;;;;3.33;3.00;;;;;;;;2053590;27;2745457;-74
2023/05/11 03:12:20;;;;;;;;;2.33;2.00;;;;;;;;2068174;27;2741966;-74
2023/05/11 03:13:31;;;;;;;;;2.33;1.00;;;;;;;;2013635;27;2732588;-74
2023/05/11 03:14:44;;;;;;;;;2.80;2.20;;;;;;;;2063899;27;2748225;-74
2023/05/11 03:15:55;;;;;;;;;4.00;4.00;;;;;;;;2035929;27;2752348;-74
2023/05/11 03:17:08;;;;;;;;;1.00;1.00;;;;;;;;2054670;27;2729445;-74
2023/05/11 03:18:22;;;;;;;;;3.33;2.33;;;;;;;;2031452;27;2737753;-74
2023/05/11 03:19:37;;;;;;;;;2.50;1.83;;;;;;;;2039556;27;2732575;-74
2023/05/11 03:20:50;;;;;;;;;2.67;2.17;;;;;;;;2040498;27;2734675;-74
2023/05/11 03:22:01;;;;;;;;;5.00;3.00;;;;;;;;2020509;27;2741926;-75
2023/05/11 03:23:12;;;;;;;;;3.33;3.33;;;;;;;;2037466;27;2739247;-74
2023/05/11 03:24:25;;;;;;;;;3.20;2.40;;;;;;;;2060241;27;2752363;-74
2023/05/11 03:25:40;;;;;;;;;3.33;2.17;;;;;;;;2070724;27;2738881;-74
2023/05/11 03:26:51;;;;;;;;;2.67;2.67;;;;;;;;2017990;27;2752364;-74
2023/05/11 03:28:05;;;;;;;;;2.00;2.00;;;;;;;;2058109;27;2741924;-74
2023/05/11 03:29:18;;;;;;;;;2.33;1.33;;;;;;;;2039565;27;2731539;-74
2023/05/11 03:30:29;;;;;;;;;4.00;1.67;;;;;;;;2020139;27;2750671;-74
2023/05/11 03:31:41;;;;;;;;;2.20;2.00;;;;;;;;2061324;27;2737776;-74
2023/05/11 03:32:55;;;;;;;;;2.00;2.00;;;;;;;;2065292;27;2742019;-74
2023/05/11 03:34:08;;;;;;;;;3.50;2.00;;;;;;;;2030451;27;2749250;-74
2023/05/11 03:35:22;;;;;;;;;1.00;1.00;;;;;;;;2040738;27;2721131;-74
2023/05/11 03:36:37;;;;;;;;;2.00;2.00;;;;;;;;2038414;27;2739845;-74
2023/05/11 03:37:48;;;;;;;;;4.33;2.67;;;;;;;;2013271;27;2750303;-74
2023/05/11 03:39:00;;;;;;;;;0.80;0.80;;;;;;;;2071819;27;2719047;-74
2023/05/11 03:40:15;;;;;;;;;1.00;1.00;;;;;;;;2048536;27;2725269;-74
2023/05/11 03:41:30;;;;;;;;;3.17;2.00;;;;;;;;2044761;27;2750310;-74
2023/05/11 03:42:44;;;;;;;;;2.00;1.00;;;;;;;;2044157;27;2725277;-74
2023/05/11 03:43:58;;;;;;;;;2.17;0.67;;;;;;;;2038928;27;2729435;-74
2023/05/11 03:45:12;;;;;;;;;3.00;1.00;;;;;;;;2014005;27;2746094;-74
2023/05/11 03:46:25;;;;;;;;;2.00;1.33;;;;;;;;2070965;27;2727379;-74
2023/05/11 03:47:40;;;;;;;;;2.00;2.00;;;;;;;;2047215;27;2748193;-74
2023/05/11 03:48:53;;;;;;;;;2.00;1.00;;;;;;;;2038285;27;2722176;-74
2023/05/11 03:50:07;;;;;;;;;1.00;1.00;;;;;;;;2064674;27;2725269;-74
2023/05/11 03:51:20;;;;;;;;;1.00;1.00;;;;;;;;2046970;27;2720086;-74
2023/05/11 03:52:34;;;;;;;;;1.00;1.00;;;;;;;;2071967;27;2726334;-74
2023/05/11 03:53:47;;;;;;;;;3.00;1.83;;;;;;;;2046628;27;2731575;-74
2023/05/11 03:55:00;;;;;;;;;0.00;0.00;;;;;;;;2039031;27;2729443;-74
2023/05/11 03:56:13;;;;;;;;;2.00;2.00;;;;;;;;2039365;27;2734656;-74
2023/05/11 03:57:26;;;;;;;;;1.00;1.00;;;;;;;;2030208;27;2728391;-74
2023/05/11 03:58:39;;;;;;;;;1.00;1.00;;;;;;;;2037171;27;2720070;-74
2023/05/11 03:59:52;;;;;;;;;2.00;2.00;;;;;;;;2070151;27;2741929;-74
2023/05/11 04:01:07;;;;;;;;;2.00;2.00;;;;;;;;2046298;27;2734636;-74
2023/05/11 04:02:23;;;;;;;;;1.00;1.00;;;;;;;;2041904;27;2724594;-74
2023/05/11 04:03:46;;;;;;;;;1.50;1.00;;;;;;;;2040364;27;2726342;-74
2023/05/11 04:04:59;;;;;;;;;2.00;2.00;;;;;;;;2057406;27;2733614;-74
2023/05/11 04:06:12;;;;;;;;;3.67;1.67;;;;;;;;2039145;27;2737765;-74
2023/05/11 04:07:25;;;;;;;;;2.67;1.50;;;;;;;;2047735;27;2727338;-74
2023/05/11 04:08:38;;;;;;;;;3.00;2.00;;;;;;;;2044811;27;2746116;-74
2023/05/11 04:10:07;;;;;;;;;2.00;2.00;;;;;;;;2045942;27;2739841;-74
2023/05/11 04:11:21;;;;;;;;;1.83;1.83;;;;;;;;2046008;27;2742455;-74
2023/05/11 04:12:34;;;;;;;;;2.83;2.83;;;;;;;;2043815;27;2744053;-74
2023/05/11 04:13:44;;;;;;;;;2.67;2.33;;;;;;;;2014355;27;2752340;-74
2023/05/11 04:14:55;;;;;;;;;2.33;1.67;;;;;;;;2068071;27;2733618;-74
2023/05/11 04:16:08;;;;;;;;;1.67;1.33;;;;;;;;2067996;27;2727394;-74
2023/05/11 04:17:21;;;;;;;;;1.17;1.00;;;;;;;;2069198;27;2727360;-74
2023/05/11 04:18:34;;;;;;;;;3.00;2.17;;;;;;;;2044828;27;2737725;-74
2023/05/11 04:19:47;;;;;;;;;3.17;3.17;;;;;;;;2045671;27;2750218;-74
2023/05/11 04:21:00;;;;;;;;;2.00;2.00;;;;;;;;2046213;27;2746490;-74
2023/05/11 04:22:13;;;;;;;;;4.00;2.00;;;;;;;;2046281;27;2748138;-74
2023/05/11 04:23:26;;;;;;;;;3.17;1.83;;;;;;;;2033016;27;2739801;-74
2023/05/11 04:24:39;;;;;;;;;3.00;2.00;;;;;;;;2028188;28;2745044;-74
2023/05/11 04:25:53;;;;;;;;;1.17;1.17;;;;;;;;2033533;27;2743975;-74
2023/05/11 04:27:06;;;;;;;;;4.67;2.00;;;;;;;;2038981;27;2742933;-74
2023/05/11 04:28:20;;;;;;;;;2.17;2.00;;;;;;;;2045930;27;2733571;-74
2023/05/11 04:29:33;;;;;;;;;3.00;2.33;;;;;;;;2047308;27;2750623;-74
2023/05/11 04:30:51;;;;;;;;;2.00;1.33;;;;;;;;2046853;27;2728379;-74
2023/05/11 04:32:05;;;;;;;;;2.00;2.00;;;;;;;;2046880;27;2745045;-74
2023/05/11 04:33:18;;;;;;;;;3.17;2.00;;;;;;;;2043670;27;2751310;-74
2023/05/11 04:34:31;;;;;;;;;2.50;2.50;;;;;;;;2046673;27;2738838;-74
2023/05/11 04:35:44;;;;;;;;;2.00;2.00;;;;;;;;2036617;27;2742965;-74
2023/05/11 04:36:57;;;;;;;;;2.00;2.00;;;;;;;;2036731;27;2746108;-74
2023/05/11 04:38:10;;;;;;;;;1.33;1.33;;;;;;;;2047716;27;2725278;-74
2023/05/11 04:39:23;;;;;;;;;5.50;2.17;;;;;;;;2044713;27;2752341;-74
2023/05/11 04:40:36;;;;;;;;;1.50;1.50;;;;;;;;2037300;27;2746101;-74
2023/05/11 04:41:49;;;;;;;;;2.33;2.00;;;;;;;;2061394;27;2746134;-74
2023/05/11 04:43:02;;;;;;;;;2.17;1.83;;;;;;;;2045303;27;2741983;-74
2023/05/11 04:44:15;;;;;;;;;3.50;2.33;;;;;;;;2042163;27;2746105;-74
2023/05/11 04:45:28;;;;;;;;;1.00;1.00;;;;;;;;2047534;27;2727863;-74
2023/05/11 04:46:41;;;;;;;;;3.00;3.00;;;;;;;;2069737;27;2739884;-74
2023/05/11 04:47:54;;;;;;;;;2.00;2.00;;;;;;;;2032015;27;2746122;-74
2023/05/11 04:49:07;;;;;;;;;2.33;2.17;;;;;;;;2035722;27;2739849;-74
2023/05/11 04:50:20;;;;;;;;;3.67;2.83;;;;;;;;2045734;27;2736732;-74
2023/05/11 04:51:31;;;;;;;;;1.67;1.67;;;;;;;;2020578;27;2740911;-74
2023/05/11 04:52:42;;;;;;;;;4.00;2.00;;;;;;;;2069536;27;2736754;-74
2023/05/11 04:53:54;;;;;;;;;6.00;3.00;;;;;;;;2036351;27;2754432;-74
2023/05/11 04:55:07;;;;;;;;;3.00;2.17;;;;;;;;2030800;27;2752106;-74
2023/05/11 04:56:20;;;;;;;;;2.83;2.17;;;;;;;;2037896;27;2744064;-74
2023/05/11 04:57:33;;;;;;;;;2.33;2.33;;;;;;;;2046540;27;2745044;-74
2023/05/11 04:58:46;;;;;;;;;4.50;2.83;;;;;;;;2046804;27;2737195;-74
2023/05/11 04:59:59;;;;;;;;;2.17;2.17;;;;;;;;2045391;27;2740910;-74
2023/05/11 05:01:12;;;;;;;;;2.33;2.33;;;;;;;;2047450;27;2732550;-74
2023/05/11 05:02:23;;;;;;;;;6.00;4.00;;;;;;;;2043856;27;2748185;-74
2023/05/11 05:03:34;;;;;;;;;3.00;3.00;;;;;;;;2056976;27;2734644;-74
2023/05/11 05:04:47;;;;;;;;;3.67;3.00;;;;;;;;2054346;27;2747141;-74
2023/05/11 05:06:00;;;;;;;;;3.83;2.33;;;;;;;;2045378;27;2747168;-74
2023/05/11 05:07:13;;;;;;;;;3.33;3.00;;;;;;;;2050730;27;2734651;-74
2023/05/11 05:08:23;;;;;;;;;5.67;3.33;;;;;;;;2015722;27;2746122;-74
2023/05/11 05:09:34;;;;;;;;;3.33;2.33;;;;;;;;2058785;27;2754517;-74
2023/05/11 05:10:46;;;;;;;;;3.33;3.33;;;;;;;;2068210;27;2741936;-74
2023/05/11 05:11:59;;;;;;;;;5.67;3.83;;;;;;;;2060399;27;2744183;-74
2023/05/11 05:13:12;;;;;;;;;3.17;3.17;;;;;;;;2030926;27;2733710;-74
2023/05/11 05:14:22;;;;;;;;;6.00;4.33;;;;;;;;2018972;27;2750359;-74
2023/05/11 05:15:33;;;;;;;;;4.67;3.00;;;;;;;;2068809;27;2746114;-74
2023/05/11 05:16:45;;;;;;;;;3.20;3.20;;;;;;;;2042828;27;2741935;-74
2023/05/11 05:17:55;;;;;;;;;4.00;4.00;;;;;;;;2013601;27;2754425;-74
2023/05/11 05:19:08;;;;;;;;;4.00;4.00;;;;;;;;2065969;27;2750287;-74
2023/05/11 05:20:21;;;;;;;;;5.00;4.00;;;;;;;;2057732;27;2754432;-74
2023/05/11 05:21:33;;;;;;;;;6.33;3.00;;;;;;;;2004416;27;2752362;-74
2023/05/11 05:22:46;;;;;;;;;2.33;2.33;;;;;;;;2054014;27;2727353;-74
2023/05/11 05:23:56;;;;;;;;;3.67;3.67;;;;;;;;2012441;27;2753388;-74
2023/05/11 05:25:07;;;;;;;;;6.00;3.67;;;;;;;;2056394;27;2743062;-74
2023/05/11 05:26:18;;;;;;;;;5.00;3.00;;;;;;;;2045664;27;2747176;-74
2023/05/11 05:27:29;;;;;;;;;4.67;3.67;;;;;;;;2052579;27;2747145;-74
2023/05/11 05:28:40;;;;;;;;;6.00;3.67;;;;;;;;2068390;27;2745438;-74
2023/05/11 05:29:50;;;;;;;;;3.00;3.00;;;;;;;;2044183;27;2749328;-74
2023/05/11 05:31:01;;;;;;;;;2.33;2.33;;;;;;;;2059850;27;2732581;-74
2023/05/11 05:32:14;;;;;;;;;5.33;3.67;;;;;;;;2052629;27;2737785;-75
2023/05/11 05:33:24;;;;;;;;;7.67;4.00;;;;;;;;2010784;27;3471451;-74
2023/05/11 05:34:35;;;;;;;;;5.67;3.00;;;;;;;;2056605;27;3467949;-74
2023/05/11 05:35:46;;;;;;;;;5.67;4.00;;;;;;;;2056184;27;2754427;-74
2023/05/11 05:36:57;;;;;;;;;4.00;4.00;;;;;;;;2065298;27;2752372;-74
2023/05/11 05:38:09;;;;;;;;;5.40;4.20;;;;;;;;2045901;27;2747171;-74
2023/05/11 05:39:22;;;;;;;;;1.67;1.50;;;;;;;;2045837;27;2735735;-74
2023/05/11 05:40:38;;;;;;;;;4.83;3.83;;;;;;;;2034954;27;2736716;-74
2023/05/11 05:41:48;;;;;;;;;6.00;3.00;;;;;;;;2011740;27;2754508;-74
2023/05/11 05:42:59;;;;;;;;;5.00;4.00;;;;;;;;2059454;27;2744039;-74
2023/05/11 05:44:12;;;;;;;;;5.00;4.00;;;;;;;;2061922;27;2746110;-74
2023/05/11 05:45:22;;;;;;;;;8.67;3.33;;;;;;;;2016076;27;2756643;-74
2023/05/11 05:46:34;;;;;;;;;4.00;3.00;;;;;;;;2068181;27;2739868;-74
2023/05/11 05:47:45;;;;;;;;;8.25;4.00;;;;;;;;2048834;27;1826341;-74
2023/05/11 05:48:58;;;;;;;;;4.83;4.33;;;;;;;;2069838;27;2745130;-74
2023/05/11 05:50:10;;;;;;;;;4.00;3.00;;;;;;;;2019219;27;2744037;-74
2023/05/11 05:51:23;;;;;;;;;7.00;4.83;;;;;;;;2069350;27;2752399;-74
2023/05/11 05:52:33;;;;;;;;;7.00;4.33;;;;;;;;2019675;27;2750628;-74
2023/05/11 05:53:45;;;;;;;;;3.67;3.67;;;;;;;;2068739;27;2739848;-74
2023/05/11 05:54:58;;;;;;;;;5.67;5.67;;;;;;;;2068357;27;2743008;-74
2023/05/11 05:56:09;;;;;;;;;3.33;3.33;;;;;;;;2034049;27;2747848;-74
2023/05/11 05:57:20;;;;;;;;;5.00;4.75;;;;;;;;2052900;27;2741949;-74
2023/05/11 05:58:30;;;;;;;;;4.00;4.00;;;;;;;;2041812;27;2754498;-74
2023/05/11 05:59:41;;;;;;;;;6.00;5.00;;;;;;;;2065847;27;2749211;-74
2023/05/11 06:00:52;;;;;;;;;4.33;3.33;;;;;;;;2061619;27;2729425;-74
2023/05/11 06:02:02;;;;;;;;;4.33;4.00;;;;;;;;2041934;27;2744071;-75
2023/05/11 06:03:14;;;;;;;;;6.67;5.33;;;;;;;;2059086;27;2747206;-74
2023/05/11 06:04:24;;;;;;;;;3.33;3.33;;;;;;;;2051861;27;2746145;-74
2023/05/11 06:05:35;;;;;;;;;4.33;4.33;;;;;;;;2052876;27;3458574;-74
2023/05/11 06:06:46;;;;;;;;;3.67;3.67;;;;;;;;2045495;27;2739908;-74
2023/05/11 06:07:57;;;;;;;;;2.00;2.00;;;;;;;;2058745;27;2741928;-74
2023/05/11 06:09:10;;;;;;;;;5.67;4.83;;;;;;;;2058046;27;2739936;-75
2023/05/11 06:10:20;;;;;;;;;5.00;4.00;;;;;;;;2024811;28;2754440;-75
2023/05/11 06:11:31;;;;;;;;;4.33;3.00;;;;;;;;2055152;27;2754931;-75
2023/05/11 06:12:42;;;;;;;;;4.00;4.00;;;;;;;;2056174;27;2737801;-75
2023/05/11 06:13:54;;;;;;;;;3.80;3.80;;;;;;;;2058682;27;2738835;-75
2023/05/11 06:15:05;;;;;;;;;5.00;4.00;;;;;;;;2006908;27;3461734;-74
2023/05/11 06:16:17;;;;;;;;;4.20;4.20;;;;;;;;2065368;27;2752348;-75
2023/05/11 06:17:28;;;;;;;;;6.33;5.00;;;;;;;;2041215;27;2746114;-75
2023/05/11 06:18:38;;;;;;;;;5.00;4.00;;;;;;;;2057277;27;2745110;-75
2023/05/11 06:19:52;;;;;;;;;5.83;4.17;;;;;;;;2057319;27;2735696;-75
2023/05/11 06:21:02;;;;;;;;;4.00;4.00;;;;;;;;2033454;27;2750350;-75
2023/05/11 06:22:13;;;;;;;;;6.00;4.00;;;;;;;;2058246;27;2746118;-74
2023/05/11 06:23:24;;;;;;;;;9.33;5.00;;;;;;;;2033373;27;3467988;-75
2023/05/11 06:24:37;;;;;;;;;6.33;6.33;;;;;;;;2068696;27;2731547;-74
2023/05/11 06:25:47;;;;;;;;;6.00;4.33;;;;;;;;2006161;27;2748252;-74
2023/05/11 06:26:58;;;;;;;;;5.00;4.00;;;;;;;;2054027;27;2746199;-75
2023/05/11 06:28:09;;;;;;;;;7.00;6.00;;;;;;;;2067426;27;2746111;-75
2023/05/11 06:29:22;;;;;;;;;8.50;5.83;;;;;;;;2054962;27;2743395;-75
2023/05/11 06:30:35;;;;;;;;;7.00;6.33;;;;;;;;2027816;27;2732557;-75
2023/05/11 06:31:48;;;;;;;;;6.67;4.67;;;;;;;;2029654;27;2748189;-74
2023/05/11 06:32:58;;;;;;;;;7.67;4.33;;;;;;;;2030432;27;2743064;-74
2023/05/11 06:34:09;;;;;;;;;6.00;6.00;;;;;;;;2059954;27;2730509;-74
2023/05/11 06:35:20;;;;;;;;;8.00;6.33;;;;;;;;2034422;27;2744105;-74
2023/05/11 06:36:33;;;;;;;;;8.17;6.33;;;;;;;;2053711;27;2737781;-74
2023/05/11 06:37:43;;;;;;;;;8.33;6.00;;;;;;;;2029607;27;3456491;-74
2023/05/11 06:38:54;;;;;;;;;7.00;5.00;;;;;;;;2053561;27;2746131;-75
2023/05/11 06:40:06;;;;;;;;;5.00;5.00;;;;;;;;2047064;27;2740900;-75
2023/05/11 06:41:20;;;;;;;;;6.83;6.00;;;;;;;;2057547;27;2732593;-75
2023/05/11 06:42:30;;;;;;;;;4.33;4.00;;;;;;;;2007529;27;2752367;-75
2023/05/11 06:43:41;;;;;;;;;10.00;7.33;;;;;;;;2055855;27;3469006;-75
2023/05/11 06:44:52;;;;;;;;;7.67;6.00;;;;;;;;2034400;27;2741926;-74
2023/05/11 06:46:03;;;;;;;;;6.00;6.00;;;;;;;;2060161;27;2745053;-74
2023/05/11 06:47:16;;;;;;;;;6.00;5.50;;;;;;;;2059240;27;2748183;-74
2023/05/11 06:48:29;;;;;;;;;5.33;5.33;;;;;;;;2036081;27;2739833;-75
2023/05/11 06:49:40;;;;;;;;;6.00;6.00;;;;;;;;2022368;27;1821091;-74
2023/05/11 06:50:51;;;;;;;;;10.67;6.00;;;;;;;;2003056;27;3476297;-74
2023/05/11 06:52:01;;;;;;;;;6.67;5.00;;;;;;;;2039218;27;2745084;-74
2023/05/11 06:53:12;;;;;;;;;8.67;7.67;;;;;;;;2048192;27;3451715;-74
2023/05/11 06:54:23;;;;;;;;;9.33;6.33;;;;;;;;2047191;27;3459615;-75
2023/05/11 06:55:34;;;;;;;;;10.00;7.00;;;;;;;;2055208;27;2748296;-75
2023/05/11 06:56:46;;;;;;;;;6.20;6.20;;;;;;;;2057776;27;2740886;-75
2023/05/11 06:57:59;;;;;;;;;6.50;6.00;;;;;;;;2031885;27;2729424;-74
2023/05/11 06:59:10;;;;;;;;;9.00;5.33;;;;;;;;2008592;27;3473515;-75
2023/05/11 07:00:21;;;;;;;;;6.67;6.00;;;;;;;;2050980;27;2741005;-74
2023/05/11 07:01:31;;;;;;;;;10.00;7.33;;;;;;;;2026109;27;2754494;-75
2023/05/11 07:02:42;;;;;;;;;6.00;6.00;;;;;;;;2057068;27;2744114;-75
2023/05/11 07:03:55;;;;;;;;;9.33;6.67;;;;;;;;2027554;27;3458589;-74
2023/05/11 07:05:05;;;;;;;;;7.67;6.67;;;;;;;;2032398;27;3451323;-74